sensor_id;sensor_type;location;lat;lon;timestamp;pressure;altitude;pressure_sealevel;temperature;humidity
59831;BME280;45711;50.108;13.712;2023-04-24T00:01:18;96786.06;;;11.53;84.47
59831;BME280;45711;50.108;13.712;2023-04-24T00:03:46;96790.63;;;11.61;83.74
59831;BME280;45711;50.108;13.712;2023-04-24T00:06:17;96791.28;;;11.58;82.76
59831;BME280;45711;50.108;13.712;2023-04-24T00:08:45;96793.72;;;11.28;81.83
59831;BME280;45711;50.108;13.712;2023-04-24T00:11:11;96796.25;;;11.33;82.01
59831;BME280;45711;50.108;13.712;2023-04-24T00:13:39;96799.59;;;11.48;83.42
59831;BME280;45711;50.108;13.712;2023-04-24T00:16:07;96801.69;;;11.60;83.05
59831;BME280;45711;50.108;13.712;2023-04-24T00:18:38;96802.72;;;11.32;83.17
59831;BME280;45711;50.108;13.712;2023-04-24T00:21:07;96797.22;;;11.38;83.30
59831;BME280;45711;50.108;13.712;2023-04-24T00:23:34;96803.84;;;11.09;82.65
59831;BME280;45711;50.108;13.712;2023-04-24T00:26:00;96803.31;;;10.90;83.44
59831;BME280;45711;50.108;13.712;2023-04-24T00:28:25;96796.72;;;10.96;84.51
59831;BME280;45711;50.108;13.712;2023-04-24T00:30:55;96796.53;;;10.92;84.15
59831;BME280;45711;50.108;13.712;2023-04-24T00:33:21;96798.47;;;11.00;83.91
59831;BME280;45711;50.108;13.712;2023-04-24T00:35:49;96802.47;;;10.80;85.31
59831;BME280;45711;50.108;13.712;2023-04-24T00:38:17;96790.25;;;10.97;85.61
59831;BME280;45711;50.108;13.712;2023-04-24T00:40:45;96799.47;;;11.13;84.67
59831;BME280;45711;50.108;13.712;2023-04-24T00:43:11;96793.66;;;11.11;84.85
59831;BME280;45711;50.108;13.712;2023-04-24T00:45:40;96793.25;;;11.35;84.22
59831;BME280;45711;50.108;13.712;2023-04-24T00:48:06;96796.00;;;11.13;85.53
59831;BME280;45711;50.108;13.712;2023-04-24T00:50:32;96789.78;;;11.35;84.26
59831;BME280;45711;50.108;13.712;2023-04-24T00:52:58;96783.84;;;11.46;83.96
59831;BME280;45711;50.108;13.712;2023-04-24T00:55:24;96785.25;;;11.04;86.56
59831;BME280;45711;50.108;13.712;2023-04-24T00:57:55;96782.22;;;10.97;86.91
59831;BME280;45711;50.108;13.712;2023-04-24T01:00:21;96783.22;;;11.10;86.93
59831;BME280;45711;50.108;13.712;2023-04-24T01:02:47;96785.78;;;11.15;86.35
59831;BME280;45711;50.108;13.712;2023-04-24T01:05:14;96777.19;;;11.35;85.08
59831;BME280;45711;50.108;13.712;2023-04-24T01:07:49;96779.81;;;11.26;85.45
59831;BME280;45711;50.108;13.712;2023-04-24T01:10:18;96774.00;;;11.24;85.76
59831;BME280;45711;50.108;13.712;2023-04-24T01:12:46;96774.09;;;11.02;87.03
59831;BME280;45711;50.108;13.712;2023-04-24T01:15:13;96772.19;;;11.02;88.75
59831;BME280;45711;50.108;13.712;2023-04-24T01:17:39;96770.66;;;10.79;90.87
59831;BME280;45711;50.108;13.712;2023-04-24T01:20:06;96768.63;;;11.16;86.40
59831;BME280;45711;50.108;13.712;2023-04-24T01:22:34;96774.31;;;11.31;85.30
59831;BME280;45711;50.108;13.712;2023-04-24T01:25:02;96772.16;;;11.42;85.22
59831;BME280;45711;50.108;13.712;2023-04-24T01:27:28;96769.81;;;11.41;84.76
59831;BME280;45711;50.108;13.712;2023-04-24T01:29:59;96767.59;;;11.43;85.02
59831;BME280;45711;50.108;13.712;2023-04-24T01:32:27;96771.69;;;11.49;84.55
59831;BME280;45711;50.108;13.712;2023-04-24T01:34:55;96775.34;;;11.53;84.47
59831;BME280;45711;50.108;13.712;2023-04-24T01:37:23;96770.63;;;11.50;84.34
59831;BME280;45711;50.108;13.712;2023-04-24T01:39:50;96769.69;;;11.54;83.73
59831;BME280;45711;50.108;13.712;2023-04-24T01:42:22;96775.03;;;11.54;84.61
59831;BME280;45711;50.108;13.712;2023-04-24T01:44:48;96760.31;;;11.35;87.77
59831;BME280;45711;50.108;13.712;2023-04-24T01:47:15;96771.22;;;11.38;86.03
59831;BME280;45711;50.108;13.712;2023-04-24T01:49:41;96763.03;;;11.43;85.71
59831;BME280;45711;50.108;13.712;2023-04-24T01:52:07;96767.91;;;11.41;85.80
59831;BME280;45711;50.108;13.712;2023-04-24T01:54:36;96759.97;;;11.27;89.30
59831;BME280;45711;50.108;13.712;2023-04-24T01:57:08;96767.97;;;11.19;89.03
59831;BME280;45711;50.108;13.712;2023-04-24T01:59:34;96761.44;;;11.42;85.57
59831;BME280;45711;50.108;13.712;2023-04-24T02:02:01;96760.19;;;11.48;84.97
59831;BME280;45711;50.108;13.712;2023-04-24T02:04:28;96765.25;;;11.50;84.96
59831;BME280;45711;50.108;13.712;2023-04-24T02:07:01;96756.06;;;11.33;87.70
59831;BME280;45711;50.108;13.712;2023-04-24T02:09:26;96752.84;;;11.14;90.36
59831;BME280;45711;50.108;13.712;2023-04-24T02:11:52;96754.19;;;11.43;85.57
59831;BME280;45711;50.108;13.712;2023-04-24T02:14:19;96746.50;;;11.50;85.35
59831;BME280;45711;50.108;13.712;2023-04-24T02:16:47;96744.13;;;11.57;84.14
59831;BME280;45711;50.108;13.712;2023-04-24T02:19:24;96740.50;;;11.62;83.71
59831;BME280;45711;50.108;13.712;2023-04-24T02:21:52;96732.97;;;11.55;84.67
59831;BME280;45711;50.108;13.712;2023-04-24T02:24:18;96742.56;;;11.56;84.44
59831;BME280;45711;50.108;13.712;2023-04-24T02:26:43;96740.06;;;11.60;84.64
59831;BME280;45711;50.108;13.712;2023-04-24T02:29:09;96734.34;;;11.52;85.67
59831;BME280;45711;50.108;13.712;2023-04-24T02:31:39;96731.06;;;11.55;84.40
59831;BME280;45711;50.108;13.712;2023-04-24T02:34:07;96729.78;;;11.53;84.87
59831;BME280;45711;50.108;13.712;2023-04-24T02:36:33;96730.72;;;11.48;85.05
59831;BME280;45711;50.108;13.712;2023-04-24T02:38:59;96734.06;;;11.54;84.96
59831;BME280;45711;50.108;13.712;2023-04-24T02:41:26;96727.09;;;11.53;85.40
59831;BME280;45711;50.108;13.712;2023-04-24T02:43:57;96723.34;;;11.54;85.30
59831;BME280;45711;50.108;13.712;2023-04-24T02:46:38;96731.22;;;11.50;85.50
59831;BME280;45711;50.108;13.712;2023-04-24T02:49:06;96723.81;;;11.56;84.75
59831;BME280;45711;50.108;13.712;2023-04-24T02:51:34;96725.38;;;11.57;84.31
59831;BME280;45711;50.108;13.712;2023-04-24T02:54:00;96721.13;;;11.56;84.48
59831;BME280;45711;50.108;13.712;2023-04-24T02:56:27;96714.19;;;11.55;84.71
59831;BME280;45711;50.108;13.712;2023-04-24T02:58:56;96719.41;;;11.60;83.93
59831;BME280;45711;50.108;13.712;2023-04-24T03:01:24;96716.72;;;11.60;84.02
59831;BME280;45711;50.108;13.712;2023-04-24T03:03:52;96716.25;;;11.58;84.33
59831;BME280;45711;50.108;13.712;2023-04-24T03:06:20;96718.44;;;11.56;84.16
59831;BME280;45711;50.108;13.712;2023-04-24T03:08:48;96714.19;;;11.55;84.93
59831;BME280;45711;50.108;13.712;2023-04-24T03:11:14;96718.94;;;11.58;84.65
59831;BME280;45711;50.108;13.712;2023-04-24T03:13:42;96708.69;;;11.60;84.09
59831;BME280;45711;50.108;13.712;2023-04-24T03:16:10;96709.63;;;11.55;84.53
59831;BME280;45711;50.108;13.712;2023-04-24T03:18:49;96697.19;;;11.51;85.86
59831;BME280;45711;50.108;13.712;2023-04-24T03:21:16;96698.41;;;11.53;84.42
59831;BME280;45711;50.108;13.712;2023-04-24T03:26:53;96698.69;;;11.17;92.45
59831;BME280;45711;50.108;13.712;2023-04-24T03:29:23;96688.75;;;10.69;96.39
59831;BME280;45711;50.108;13.712;2023-04-24T03:31:49;96698.78;;;10.55;98.18
59831;BME280;45711;50.108;13.712;2023-04-24T03:34:17;96699.56;;;10.55;98.51
59831;BME280;45711;50.108;13.712;2023-04-24T03:36:47;96693.69;;;10.45;99.37
59831;BME280;45711;50.108;13.712;2023-04-24T03:39:17;96694.94;;;10.47;99.86
59831;BME280;45711;50.108;13.712;2023-04-24T03:41:49;96693.69;;;10.45;99.92
59831;BME280;45711;50.108;13.712;2023-04-24T03:44:22;96692.50;;;10.28;100.00
59831;BME280;45711;50.108;13.712;2023-04-24T03:46:50;96695.50;;;10.58;98.21
59831;BME280;45711;50.108;13.712;2023-04-24T03:49:28;96694.84;;;10.61;99.30
59831;BME280;45711;50.108;13.712;2023-04-24T03:52:00;96702.50;;;10.45;100.00
59831;BME280;45711;50.108;13.712;2023-04-24T03:54:29;96698.78;;;10.55;99.77
59831;BME280;45711;50.108;13.712;2023-04-24T03:57:00;96693.59;;;10.59;98.67
59831;BME280;45711;50.108;13.712;2023-04-24T03:59:33;96699.09;;;10.62;97.66
59831;BME280;45711;50.108;13.712;2023-04-24T04:02:01;96691.28;;;10.74;95.68
59831;BME280;45711;50.108;13.712;2023-04-24T04:04:34;96692.94;;;10.84;94.30
59831;BME280;45711;50.108;13.712;2023-04-24T04:07:02;96690.50;;;10.74;96.84
59831;BME280;45711;50.108;13.712;2023-04-24T04:09:30;96691.34;;;10.52;98.75
59831;BME280;45711;50.108;13.712;2023-04-24T04:11:59;96691.50;;;10.47;99.67
59831;BME280;45711;50.108;13.712;2023-04-24T04:14:36;96692.59;;;10.46;99.31
59831;BME280;45711;50.108;13.712;2023-04-24T04:17:02;96695.91;;;10.51;98.91
59831;BME280;45711;50.108;13.712;2023-04-24T04:19:28;96687.53;;;10.44;99.70
59831;BME280;45711;50.108;13.712;2023-04-24T04:22:05;96694.56;;;10.63;99.15
59831;BME280;45711;50.108;13.712;2023-04-24T04:24:39;96702.06;;;10.52;100.00
59831;BME280;45711;50.108;13.712;2023-04-24T04:27:07;96694.78;;;10.44;100.00
59831;BME280;45711;50.108;13.712;2023-04-24T04:29:41;96704.94;;;10.33;100.00
59831;BME280;45711;50.108;13.712;2023-04-24T04:32:10;96706.75;;;10.46;100.00
59831;BME280;45711;50.108;13.712;2023-04-24T04:34:41;96708.00;;;10.49;100.00
59831;BME280;45711;50.108;13.712;2023-04-24T04:37:13;96708.78;;;10.41;100.00
59831;BME280;45711;50.108;13.712;2023-04-24T04:39:43;96710.13;;;10.61;100.00
59831;BME280;45711;50.108;13.712;2023-04-24T04:42:21;96712.31;;;10.90;94.83
59831;BME280;45711;50.108;13.712;2023-04-24T04:44:53;96697.56;;;11.10;92.32
59831;BME280;45711;50.108;13.712;2023-04-24T04:47:32;96703.75;;;11.36;87.83
59831;BME280;45711;50.108;13.712;2023-04-24T04:50:20;96701.91;;;11.45;87.25
59831;BME280;45711;50.108;13.712;2023-04-24T04:53:00;96706.63;;;11.48;86.29
59831;BME280;45711;50.108;13.712;2023-04-24T04:55:32;96708.38;;;11.62;85.79
59831;BME280;45711;50.108;13.712;2023-04-24T05:00:54;96706.47;;;11.53;86.89
59831;BME280;45711;50.108;13.712;2023-04-24T05:03:39;96718.00;;;11.54;85.88
59831;BME280;45711;50.108;13.712;2023-04-24T05:09:22;96710.25;;;11.70;85.00
59831;BME280;45711;50.108;13.712;2023-04-24T05:12:07;96720.69;;;11.71;84.44
59831;BME280;45711;50.108;13.712;2023-04-24T05:14:49;96723.81;;;11.73;84.33
59831;BME280;45711;50.108;13.712;2023-04-24T05:17:59;96718.44;;;11.56;86.70
59831;BME280;45711;50.108;13.712;2023-04-24T05:20:33;96719.06;;;11.53;87.11
59831;BME280;45711;50.108;13.712;2023-04-24T05:23:03;96726.16;;;11.49;88.45
59831;BME280;45711;50.108;13.712;2023-04-24T05:25:34;96731.84;;;11.56;88.30
59831;BME280;45711;50.108;13.712;2023-04-24T05:28:17;96730.09;;;11.43;89.20
59831;BME280;45711;50.108;13.712;2023-04-24T05:30:51;96726.00;;;11.37;89.16
59831;BME280;45711;50.108;13.712;2023-04-24T05:33:20;96729.25;;;11.25;89.59
59831;BME280;45711;50.108;13.712;2023-04-24T05:35:58;96726.38;;;11.13;92.34
59831;BME280;45711;50.108;13.712;2023-04-24T05:38:29;96730.38;;;11.24;91.35
59831;BME280;45711;50.108;13.712;2023-04-24T05:44:08;96735.91;;;10.88;94.86
59831;BME280;45711;50.108;13.712;2023-04-24T05:47:35;96742.53;;;10.90;95.06
59831;BME280;45711;50.108;13.712;2023-04-24T05:50:15;96751.16;;;10.87;96.33
59831;BME280;45711;50.108;13.712;2023-04-24T05:52:56;96751.19;;;10.96;94.27
59831;BME280;45711;50.108;13.712;2023-04-24T05:55:36;96760.41;;;11.12;93.25
59831;BME280;45711;50.108;13.712;2023-04-24T05:58:04;96768.13;;;11.14;93.46
59831;BME280;45711;50.108;13.712;2023-04-24T06:00:43;96773.50;;;11.22;93.06
59831;BME280;45711;50.108;13.712;2023-04-24T06:03:23;96777.66;;;10.89;95.90
59831;BME280;45711;50.108;13.712;2023-04-24T06:06:04;96781.00;;;10.72;94.05
59831;BME280;45711;50.108;13.712;2023-04-24T06:08:53;96789.81;;;10.72;96.00
59831;BME280;45711;50.108;13.712;2023-04-24T06:11:19;96787.34;;;10.53;97.08
59831;BME280;45711;50.108;13.712;2023-04-24T06:13:59;96789.13;;;10.58;95.59
59831;BME280;45711;50.108;13.712;2023-04-24T06:16:36;96787.97;;;10.81;94.35
59831;BME280;45711;50.108;13.712;2023-04-24T06:19:02;96789.34;;;11.01;92.59
59831;BME280;45711;50.108;13.712;2023-04-24T06:21:50;96787.97;;;11.13;92.46
59831;BME280;45711;50.108;13.712;2023-04-24T06:24:16;96783.78;;;10.58;95.40
59831;BME280;45711;50.108;13.712;2023-04-24T06:26:42;96792.69;;;10.53;96.06
59831;BME280;45711;50.108;13.712;2023-04-24T06:29:22;96777.97;;;10.96;91.85
59831;BME280;45711;50.108;13.712;2023-04-24T06:32:05;96781.81;;;10.72;94.86
59831;BME280;45711;50.108;13.712;2023-04-24T06:34:33;96787.34;;;10.76;96.64
59831;BME280;45711;50.108;13.712;2023-04-24T06:37:02;96782.53;;;10.95;97.21
59831;BME280;45711;50.108;13.712;2023-04-24T06:39:30;96789.09;;;10.80;97.41
59831;BME280;45711;50.108;13.712;2023-04-24T06:42:04;96789.38;;;10.79;97.43
59831;BME280;45711;50.108;13.712;2023-04-24T06:44:53;96786.53;;;10.75;99.10
59831;BME280;45711;50.108;13.712;2023-04-24T06:47:29;96795.53;;;10.57;99.67
59831;BME280;45711;50.108;13.712;2023-04-24T06:49:58;96790.56;;;10.64;99.76
59831;BME280;45711;50.108;13.712;2023-04-24T06:52:30;96791.78;;;10.58;100.00
59831;BME280;45711;50.108;13.712;2023-04-24T06:55:05;96791.66;;;10.63;99.66
59831;BME280;45711;50.108;13.712;2023-04-24T06:57:31;96787.56;;;10.97;96.21
59831;BME280;45711;50.108;13.712;2023-04-24T06:59:58;96784.59;;;10.67;98.41
59831;BME280;45711;50.108;13.712;2023-04-24T07:58:59;96819.94;;;11.57;94.41
59831;BME280;45711;50.108;13.712;2023-04-24T11:38:03;96805.69;;;13.30;79.23
59831;BME280;45711;50.108;13.712;2023-04-24T11:40:56;96801.34;;;13.00;81.13
59831;BME280;45711;50.108;13.712;2023-04-24T11:43:34;96811.22;;;13.34;82.18
59831;BME280;45711;50.108;13.712;2023-04-24T11:46:00;96798.34;;;13.01;79.61
59831;BME280;45711;50.108;13.712;2023-04-24T11:48:29;96803.31;;;12.82;80.20
59831;BME280;45711;50.108;13.712;2023-04-24T11:50:55;96815.00;;;12.77;81.99
59831;BME280;45711;50.108;13.712;2023-04-24T11:53:24;96821.34;;;12.55;80.96
59831;BME280;45711;50.108;13.712;2023-04-24T11:55:50;96815.19;;;12.46;81.33
59831;BME280;45711;50.108;13.712;2023-04-24T11:58:20;96812.19;;;12.56;80.17
59831;BME280;45711;50.108;13.712;2023-04-24T12:00:55;96819.13;;;12.49;79.96
59831;BME280;45711;50.108;13.712;2023-04-24T12:03:28;96814.25;;;12.33;81.24
59831;BME280;45711;50.108;13.712;2023-04-24T12:06:07;96811.75;;;12.28;76.08
59831;BME280;45711;50.108;13.712;2023-04-24T12:08:41;96816.78;;;12.30;81.30
59831;BME280;45711;50.108;13.712;2023-04-24T12:11:07;96817.09;;;12.28;81.18
59831;BME280;45711;50.108;13.712;2023-04-24T12:13:54;96822.13;;;12.21;81.26
59831;BME280;45711;50.108;13.712;2023-04-24T12:16:20;96828.44;;;12.25;81.09
59831;BME280;45711;50.108;13.712;2023-04-24T12:18:46;96821.97;;;12.18;81.24
59831;BME280;45711;50.108;13.712;2023-04-24T12:21:18;96819.63;;;12.16;81.08
59831;BME280;45711;50.108;13.712;2023-04-24T12:23:53;96823.72;;;12.22;77.67
59831;BME280;45711;50.108;13.712;2023-04-24T12:26:20;96822.94;;;12.39;78.70
59831;BME280;45711;50.108;13.712;2023-04-24T12:35:57;96816.78;;;12.30;78.22
59831;BME280;45711;50.108;13.712;2023-04-24T12:38:33;96820.72;;;12.24;77.67
59831;BME280;45711;50.108;13.712;2023-04-24T12:41:09;96832.53;;;12.23;79.24
59831;BME280;45711;50.108;13.712;2023-04-24T12:47:07;96830.19;;;12.21;74.95
59831;BME280;45711;50.108;13.712;2023-04-24T12:49:47;96828.44;;;12.25;76.51
59831;BME280;45711;50.108;13.712;2023-04-24T12:52:41;96832.69;;;12.18;78.26
59831;BME280;45711;50.108;13.712;2023-04-24T12:55:31;96830.97;;;12.13;78.77
59831;BME280;45711;50.108;13.712;2023-04-24T12:58:01;96831.44;;;12.06;78.13
59831;BME280;45711;50.108;13.712;2023-04-24T13:00:28;96833.16;;;11.94;79.21
59831;BME280;45711;50.108;13.712;2023-04-24T13:03:00;96840.44;;;12.02;78.37
59831;BME280;45711;50.108;13.712;2023-04-24T13:05:34;96836.31;;;11.96;78.59
59831;BME280;45711;50.108;13.712;2023-04-24T13:08:03;96841.69;;;12.04;78.95
59831;BME280;45711;50.108;13.712;2023-04-24T13:10:29;96825.59;;;12.04;77.49
59831;BME280;45711;50.108;13.712;2023-04-24T13:13:02;96833.50;;;12.18;77.56
59831;BME280;45711;50.108;13.712;2023-04-24T13:15:30;96839.34;;;12.12;75.37
59831;BME280;45711;50.108;13.712;2023-04-24T13:18:06;96841.06;;;12.16;75.67
59831;BME280;45711;50.108;13.712;2023-04-24T13:20:38;96843.13;;;12.19;75.43
59831;BME280;45711;50.108;13.712;2023-04-24T13:23:16;96840.75;;;12.26;72.82
59831;BME280;45711;50.108;13.712;2023-04-24T13:25:54;96828.00;;;12.32;75.83
59831;BME280;45711;50.108;13.712;2023-04-24T13:28:46;96831.94;;;12.35;74.98
59831;BME280;45711;50.108;13.712;2023-04-24T13:31:31;96830.66;;;12.49;74.11
59831;BME280;45711;50.108;13.712;2023-04-24T13:34:06;96822.91;;;12.48;73.50
59831;BME280;45711;50.108;13.712;2023-04-24T13:37:15;96816.16;;;12.50;72.97
59831;BME280;45711;50.108;13.712;2023-04-24T13:41:29;96815.66;;;12.40;73.89
59831;BME280;45711;50.108;13.712;2023-04-24T13:43:36;96811.06;;;12.49;71.53
59831;BME280;45711;50.108;13.712;2023-04-24T13:56:31;96792.47;;;12.44;68.88
59831;BME280;45711;50.108;13.712;2023-04-24T13:59:29;96789.94;;;12.30;72.13
59831;BME280;45711;50.108;13.712;2023-04-24T14:02:03;96794.84;;;12.28;66.94
59831;BME280;45711;50.108;13.712;2023-04-24T14:04:39;96801.63;;;12.34;68.83
59831;BME280;45711;50.108;13.712;2023-04-24T14:07:07;96798.94;;;12.34;71.09
59831;BME280;45711;50.108;13.712;2023-04-24T14:16:44;96792.94;;;12.54;65.09
59831;BME280;45711;50.108;13.712;2023-04-24T14:19:11;96795.31;;;12.47;65.63
59831;BME280;45711;50.108;13.712;2023-04-24T14:21:42;96798.91;;;12.60;66.64
59831;BME280;45711;50.108;13.712;2023-04-24T14:24:24;96797.66;;;12.57;68.02
59831;BME280;45711;50.108;13.712;2023-04-24T14:26:57;96803.34;;;12.56;70.27
59831;BME280;45711;50.108;13.712;2023-04-24T14:29:34;96813.78;;;12.31;71.21
59831;BME280;45711;50.108;13.712;2023-04-24T14:32:01;96808.41;;;12.23;71.56
59831;BME280;45711;50.108;13.712;2023-04-24T14:34:27;96811.75;;;12.37;70.54
59831;BME280;45711;50.108;13.712;2023-04-24T14:37:22;96816.94;;;12.33;70.74
59831;BME280;45711;50.108;13.712;2023-04-24T14:39:59;96817.56;;;12.39;70.73
59831;BME280;45711;50.108;13.712;2023-04-24T14:42:27;96823.25;;;12.46;70.17
59831;BME280;45711;50.108;13.712;2023-04-24T14:45:12;96815.66;;;12.48;69.57
59831;BME280;45711;50.108;13.712;2023-04-24T14:47:46;96820.56;;;12.38;71.67
59831;BME280;45711;50.108;13.712;2023-04-24T14:50:20;96822.63;;;12.41;70.99
59831;BME280;45711;50.108;13.712;2023-04-24T14:52:56;96825.94;;;12.38;72.07
59831;BME280;45711;50.108;13.712;2023-04-24T14:55:29;96819.28;;;12.35;71.95
59831;BME280;45711;50.108;13.712;2023-04-24T14:58:03;96834.28;;;12.27;70.83
59831;BME280;45711;50.108;13.712;2023-04-24T15:00:36;96829.88;;;12.31;71.70
59831;BME280;45711;50.108;13.712;2023-04-24T15:03:21;96834.28;;;12.27;71.96
59831;BME280;45711;50.108;13.712;2023-04-24T15:06:00;96830.53;;;12.37;71.79
59831;BME280;45711;50.108;13.712;2023-04-24T15:08:38;96833.81;;;12.43;72.01
59831;BME280;45711;50.108;13.712;2023-04-24T15:11:09;96840.13;;;12.47;69.15
59831;BME280;45711;50.108;13.712;2023-04-24T15:13:35;96837.44;;;12.64;65.50
59831;BME280;45711;50.108;13.712;2023-04-24T15:16:01;96838.06;;;12.61;68.33
59831;BME280;45711;50.108;13.712;2023-04-24T15:18:30;96832.72;;;12.52;64.32
59831;BME280;45711;50.108;13.712;2023-04-24T15:20:56;96836.66;;;12.64;67.67
59831;BME280;45711;50.108;13.712;2023-04-24T15:23:21;96845.00;;;12.71;68.72
59831;BME280;45711;50.108;13.712;2023-04-24T15:25:47;96837.59;;;12.76;63.57
59831;BME280;45711;50.108;13.712;2023-04-24T15:28:13;96851.66;;;12.56;68.15
59831;BME280;45711;50.108;13.712;2023-04-24T15:41:18;96859.06;;;12.33;68.76
59831;BME280;45711;50.108;13.712;2023-04-24T15:44:07;96863.16;;;12.30;70.71
59831;BME280;45711;50.108;13.712;2023-04-24T15:52:55;96872.16;;;12.69;59.61
59831;BME280;45711;50.108;13.712;2023-04-24T15:55:21;96865.19;;;12.94;58.36
59831;BME280;45711;50.108;13.712;2023-04-24T15:57:48;96872.91;;;12.96;60.63
59831;BME280;45711;50.108;13.712;2023-04-24T16:00:15;96872.44;;;13.02;61.09
59831;BME280;45711;50.108;13.712;2023-04-24T16:02:43;96872.44;;;13.02;61.56
59831;BME280;45711;50.108;13.712;2023-04-24T16:08:52;96886.63;;;13.29;64.45
59831;BME280;45711;50.108;13.712;2023-04-24T16:11:39;96886.63;;;13.29;65.58
59831;BME280;45711;50.108;13.712;2023-04-24T20:31:30;97075.00;;;12.53;71.40
59831;BME280;45711;50.108;13.712;2023-04-24T20:33:56;97089.13;;;12.27;68.28
59831;BME280;45711;50.108;13.712;2023-04-24T20:36:24;97084.41;;;12.33;71.84
59831;BME280;45711;50.108;13.712;2023-04-24T20:38:55;97092.84;;;12.49;70.50
59831;BME280;45711;50.108;13.712;2023-04-24T20:41:27;97089.47;;;12.35;71.59
59831;BME280;45711;50.108;13.712;2023-04-24T20:44:01;97091.22;;;12.39;69.40
59831;BME280;45711;50.108;13.712;2023-04-24T20:46:31;97094.41;;;12.10;72.40
59831;BME280;45711;50.108;13.712;2023-04-24T20:48:57;97093.31;;;12.11;72.82
59831;BME280;45711;50.108;13.712;2023-04-24T20:51:25;97090.53;;;12.25;72.71
59831;BME280;45711;50.108;13.712;2023-04-24T20:53:52;97098.59;;;12.25;72.57
59831;BME280;45711;50.108;13.712;2023-04-24T20:56:18;97101.34;;;11.66;67.86
59831;BME280;45711;50.108;13.712;2023-04-24T20:58:50;97100.63;;;12.19;72.50
59831;BME280;45711;50.108;13.712;2023-04-24T21:01:16;97093.66;;;11.87;71.97
59831;BME280;45711;50.108;13.712;2023-04-24T21:03:50;97099.78;;;11.88;72.64
59831;BME280;45711;50.108;13.712;2023-04-24T21:06:17;97105.72;;;11.98;71.20
59831;BME280;45711;50.108;13.712;2023-04-24T21:08:42;97097.72;;;12.07;72.32
59831;BME280;45711;50.108;13.712;2023-04-24T21:11:11;97107.59;;;11.98;71.12
59831;BME280;45711;50.108;13.712;2023-04-24T21:13:39;97105.06;;;12.01;72.61
59831;BME280;45711;50.108;13.712;2023-04-24T21:16:05;97098.41;;;12.21;71.91
59831;BME280;45711;50.108;13.712;2023-04-24T21:18:34;97104.81;;;11.44;72.19
59831;BME280;45711;50.108;13.712;2023-04-24T21:21:08;97096.53;;;11.32;66.47
59831;BME280;45711;50.108;13.712;2023-04-24T21:23:34;97099.81;;;11.29;67.52
59831;BME280;45711;50.108;13.712;2023-04-24T21:26:06;97102.47;;;11.65;74.13
59831;BME280;45711;50.108;13.712;2023-04-24T21:28:41;97110.56;;;11.51;73.66
59831;BME280;45711;50.108;13.712;2023-04-24T21:31:07;97108.63;;;10.79;66.58
59831;BME280;45711;50.108;13.712;2023-04-24T21:33:35;97099.00;;;10.23;68.04
59831;BME280;45711;50.108;13.712;2023-04-24T21:36:01;97098.25;;;9.39;69.48
59831;BME280;45711;50.108;13.712;2023-04-24T21:38:29;97097.44;;;9.90;70.26
59831;BME280;45711;50.108;13.712;2023-04-24T21:41:00;97093.09;;;9.94;68.44
59831;BME280;45711;50.108;13.712;2023-04-24T21:43:25;97102.72;;;10.55;78.51
59831;BME280;45711;50.108;13.712;2023-04-24T21:45:51;97104.38;;;10.65;77.65
59831;BME280;45711;50.108;13.712;2023-04-24T21:48:17;97106.97;;;10.28;70.43
59831;BME280;45711;50.108;13.712;2023-04-24T21:50:47;97111.69;;;9.34;71.83
59831;BME280;45711;50.108;13.712;2023-04-24T21:53:13;97115.72;;;9.82;79.16
59831;BME280;45711;50.108;13.712;2023-04-24T21:55:44;97114.91;;;9.68;80.77
59831;BME280;45711;50.108;13.712;2023-04-24T21:58:10;97113.63;;;10.59;78.54
59831;BME280;45711;50.108;13.712;2023-04-24T22:00:45;97123.25;;;11.10;76.95
59831;BME280;45711;50.108;13.712;2023-04-24T22:03:13;97115.47;;;10.44;69.74
59831;BME280;45711;50.108;13.712;2023-04-24T22:05:41;97122.50;;;9.94;73.24
59831;BME280;45711;50.108;13.712;2023-04-24T22:08:07;97121.13;;;8.88;71.15
59831;BME280;45711;50.108;13.712;2023-04-24T22:10:35;97123.41;;;8.52;76.00
59831;BME280;45711;50.108;13.712;2023-04-24T22:13:03;97125.34;;;8.46;72.80
59831;BME280;45711;50.108;13.712;2023-04-24T22:15:29;97124.16;;;9.57;75.39
59831;BME280;45711;50.108;13.712;2023-04-24T22:17:55;97130.41;;;9.85;78.90
59831;BME280;45711;50.108;13.712;2023-04-24T22:20:22;97134.91;;;10.50;78.58
59831;BME280;45711;50.108;13.712;2023-04-24T22:22:51;97122.16;;;9.30;69.86
59831;BME280;45711;50.108;13.712;2023-04-24T22:25:17;97126.78;;;9.24;70.10
59831;BME280;45711;50.108;13.712;2023-04-24T22:27:43;97129.75;;;8.56;74.81
59831;BME280;45711;50.108;13.712;2023-04-24T22:30:12;97128.00;;;8.70;81.27
59831;BME280;45711;50.108;13.712;2023-04-24T22:32:37;97125.94;;;10.27;79.90
59831;BME280;45711;50.108;13.712;2023-04-24T22:35:07;97130.72;;;10.30;71.03
59831;BME280;45711;50.108;13.712;2023-04-24T22:37:32;97128.28;;;9.49;73.41
59831;BME280;45711;50.108;13.712;2023-04-24T22:39:58;97128.81;;;9.84;70.83
59831;BME280;45711;50.108;13.712;2023-04-24T22:42:25;97128.72;;;9.38;71.19
59831;BME280;45711;50.108;13.712;2023-04-24T22:44:51;97130.56;;;8.99;80.51
59831;BME280;45711;50.108;13.712;2023-04-24T22:47:21;97125.00;;;8.77;76.80
59831;BME280;45711;50.108;13.712;2023-04-24T22:49:46;97121.56;;;9.52;71.70
59831;BME280;45711;50.108;13.712;2023-04-24T22:52:12;97125.47;;;9.03;71.30
59831;BME280;45711;50.108;13.712;2023-04-24T22:54:40;97117.31;;;7.93;75.00
59831;BME280;45711;50.108;13.712;2023-04-24T22:57:06;97122.38;;;7.61;76.96
59831;BME280;45711;50.108;13.712;2023-04-24T22:59:32;97128.84;;;7.49;77.23
59831;BME280;45711;50.108;13.712;2023-04-24T23:01:58;97126.78;;;7.41;78.28
59831;BME280;45711;50.108;13.712;2023-04-24T23:04:25;97119.09;;;7.35;78.85